sensor_id;sensor_type;location;lat;lon;timestamp;P1;durP1;ratioP1;P2;durP2;ratioP2
32427;SDS011;18882;50.952;4.366;2022-09-23T00:01:00;12.85;;;4.75;;
32427;SDS011;18882;50.952;4.366;2022-09-23T00:03:28;8.15;;;4.47;;
32427;SDS011;18882;50.952;4.366;2022-09-23T00:06:00;13.85;;;5.03;;
32427;SDS011;18882;50.952;4.366;2022-09-23T00:08:28;11.73;;;4.40;;
32427;SDS011;18882;50.952;4.366;2022-09-23T00:10:55;9.48;;;4.80;;
32427;SDS011;18882;50.952;4.366;2022-09-23T00:13:28;9.45;;;4.28;;
32427;SDS011;18882;50.952;4.366;2022-09-23T00:15:54;13.93;;;4.82;;
32427;SDS011;18882;50.952;4.366;2022-09-23T00:18:19;13.13;;;4.70;;
32427;SDS011;18882;50.952;4.366;2022-09-23T00:20:46;9.30;;;4.85;;
32427;SDS011;18882;50.952;4.366;2022-09-23T00:23:12;10.57;;;4.10;;
32427;SDS011;18882;50.952;4.366;2022-09-23T00:25:37;10.90;;;4.70;;
32427;SDS011;18882;50.952;4.366;2022-09-23T00:28:03;8.20;;;4.10;;
32427;SDS011;18882;50.952;4.366;2022-09-23T00:30:29;7.38;;;4.18;;
32427;SDS011;18882;50.952;4.366;2022-09-23T00:32:56;12.07;;;3.97;;
32427;SDS011;18882;50.952;4.366;2022-09-23T00:35:22;7.57;;;3.58;;
32427;SDS011;18882;50.952;4.366;2022-09-23T00:37:47;9.55;;;4.80;;
32427;SDS011;18882;50.952;4.366;2022-09-23T00:40:13;8.60;;;3.88;;
32427;SDS011;18882;50.952;4.366;2022-09-23T00:42:46;7.45;;;4.03;;
32427;SDS011;18882;50.952;4.366;2022-09-23T00:45:13;8.60;;;4.88;;
32427;SDS011;18882;50.952;4.366;2022-09-23T00:47:43;6.53;;;4.50;;
32427;SDS011;18882;50.952;4.366;2022-09-23T00:50:12;11.00;;;4.47;;
32427;SDS011;18882;50.952;4.366;2022-09-23T00:52:46;11.27;;;4.40;;
32427;SDS011;18882;50.952;4.366;2022-09-23T00:55:24;11.48;;;3.88;;
32427;SDS011;18882;50.952;4.366;2022-09-23T00:57:54;9.02;;;3.97;;
32427;SDS011;18882;50.952;4.366;2022-09-23T01:00:22;9.43;;;3.95;;
32427;SDS011;18882;50.952;4.366;2022-09-23T01:02:48;11.73;;;4.75;;
32427;SDS011;18882;50.952;4.366;2022-09-23T01:05:15;10.13;;;4.32;;
32427;SDS011;18882;50.952;4.366;2022-09-23T01:07:41;8.77;;;4.07;;
32427;SDS011;18882;50.952;4.366;2022-09-23T01:10:08;7.90;;;4.30;;
32427;SDS011;18882;50.952;4.366;2022-09-23T01:17:52;7.72;;;4.13;;
32427;SDS011;18882;50.952;4.366;2022-09-23T01:23:21;8.73;;;4.28;;
32427;SDS011;18882;50.952;4.366;2022-09-23T01:39:21;6.38;;;3.60;;
32427;SDS011;18882;50.952;4.366;2022-09-23T01:41:58;11.70;;;4.03;;
32427;SDS011;18882;50.952;4.366;2022-09-23T01:47:14;8.38;;;4.63;;
32427;SDS011;18882;50.952;4.366;2022-09-23T01:49:59;6.75;;;3.78;;
32427;SDS011;18882;50.952;4.366;2022-09-23T01:52:48;8.82;;;4.05;;
32427;SDS011;18882;50.952;4.366;2022-09-23T01:55:23;6.40;;;3.80;;
32427;SDS011;18882;50.952;4.366;2022-09-23T01:57:55;7.15;;;4.22;;
32427;SDS011;18882;50.952;4.366;2022-09-23T02:00:32;7.53;;;4.18;;
32427;SDS011;18882;50.952;4.366;2022-09-23T02:03:04;5.80;;;3.53;;
32427;SDS011;18882;50.952;4.366;2022-09-23T02:05:44;6.35;;;3.58;;
32427;SDS011;18882;50.952;4.366;2022-09-23T02:08:18;6.97;;;3.70;;
32427;SDS011;18882;50.952;4.366;2022-09-23T02:13:17;8.15;;;4.40;;
32427;SDS011;18882;50.952;4.366;2022-09-23T02:15:50;7.93;;;4.10;;
32427;SDS011;18882;50.952;4.366;2022-09-23T02:18:23;8.60;;;3.67;;
32427;SDS011;18882;50.952;4.366;2022-09-23T02:20:54;5.70;;;3.53;;
32427;SDS011;18882;50.952;4.366;2022-09-23T02:23:24;5.47;;;3.63;;
32427;SDS011;18882;50.952;4.366;2022-09-23T02:26:03;8.13;;;3.65;;
32427;SDS011;18882;50.952;4.366;2022-09-23T02:29:10;7.90;;;3.65;;
32427;SDS011;18882;50.952;4.366;2022-09-23T02:31:36;4.85;;;3.13;;
32427;SDS011;18882;50.952;4.366;2022-09-23T02:34:10;6.43;;;4.03;;
32427;SDS011;18882;50.952;4.366;2022-09-23T02:36:55;7.82;;;3.72;;
32427;SDS011;18882;50.952;4.366;2022-09-23T02:39:25;5.15;;;3.38;;
32427;SDS011;18882;50.952;4.366;2022-09-23T02:42:15;7.75;;;3.65;;
32427;SDS011;18882;50.952;4.366;2022-09-23T02:44:49;8.48;;;3.28;;
32427;SDS011;18882;50.952;4.366;2022-09-23T02:47:15;6.05;;;3.33;;
32427;SDS011;18882;50.952;4.366;2022-09-23T02:49:44;6.10;;;2.75;;
32427;SDS011;18882;50.952;4.366;2022-09-23T02:52:10;9.30;;;3.50;;
32427;SDS011;18882;50.952;4.366;2022-09-23T02:54:37;9.55;;;4.05;;
32427;SDS011;18882;50.952;4.366;2022-09-23T02:57:04;6.88;;;3.90;;
32427;SDS011;18882;50.952;4.366;2022-09-23T02:59:32;7.68;;;3.60;;
32427;SDS011;18882;50.952;4.366;2022-09-23T03:07:35;5.30;;;2.97;;
32427;SDS011;18882;50.952;4.366;2022-09-23T03:22:11;10.88;;;4.03;;
32427;SDS011;18882;50.952;4.366;2022-09-23T03:24:52;5.90;;;3.65;;
32427;SDS011;18882;50.952;4.366;2022-09-23T03:27:24;11.48;;;3.95;;
32427;SDS011;18882;50.952;4.366;2022-09-23T03:29:53;6.32;;;3.05;;
32427;SDS011;18882;50.952;4.366;2022-09-23T03:32:20;6.05;;;3.78;;
32427;SDS011;18882;50.952;4.366;2022-09-23T03:34:49;4.93;;;3.25;;
32427;SDS011;18882;50.952;4.366;2022-09-23T03:37:23;4.15;;;3.33;;
32427;SDS011;18882;50.952;4.366;2022-09-23T03:40:02;7.22;;;3.75;;
32427;SDS011;18882;50.952;4.366;2022-09-23T03:42:34;6.60;;;3.85;;
32427;SDS011;18882;50.952;4.366;2022-09-23T03:45:04;5.28;;;3.33;;
32427;SDS011;18882;50.952;4.366;2022-09-23T03:47:33;6.65;;;3.65;;
32427;SDS011;18882;50.952;4.366;2022-09-23T03:49:59;7.38;;;3.60;;
32427;SDS011;18882;50.952;4.366;2022-09-23T03:52:25;5.28;;;3.50;;
32427;SDS011;18882;50.952;4.366;2022-09-23T03:54:52;8.68;;;3.67;;
32427;SDS011;18882;50.952;4.366;2022-09-23T03:57:20;7.82;;;3.47;;
32427;SDS011;18882;50.952;4.366;2022-09-23T03:59:47;6.05;;;3.13;;
32427;SDS011;18882;50.952;4.366;2022-09-23T04:02:16;5.28;;;2.95;;
32427;SDS011;18882;50.952;4.366;2022-09-23T04:04:43;6.40;;;3.55;;
32427;SDS011;18882;50.952;4.366;2022-09-23T04:07:09;7.68;;;3.90;;
32427;SDS011;18882;50.952;4.366;2022-09-23T04:09:35;5.85;;;3.50;;
32427;SDS011;18882;50.952;4.366;2022-09-23T04:12:02;8.00;;;3.47;;
32427;SDS011;18882;50.952;4.366;2022-09-23T04:14:28;4.93;;;3.05;;
32427;SDS011;18882;50.952;4.366;2022-09-23T04:16:54;5.18;;;3.03;;
32427;SDS011;18882;50.952;4.366;2022-09-23T04:19:20;5.07;;;3.35;;
32427;SDS011;18882;50.952;4.366;2022-09-23T04:21:46;5.30;;;3.45;;
32427;SDS011;18882;50.952;4.366;2022-09-23T04:24:11;7.90;;;3.80;;
32427;SDS011;18882;50.952;4.366;2022-09-23T04:26:37;5.88;;;3.45;;
32427;SDS011;18882;50.952;4.366;2022-09-23T04:29:03;6.35;;;3.00;;
32427;SDS011;18882;50.952;4.366;2022-09-23T04:31:30;7.68;;;3.80;;
32427;SDS011;18882;50.952;4.366;2022-09-23T04:33:57;5.35;;;3.25;;
32427;SDS011;18882;50.952;4.366;2022-09-23T04:36:23;8.23;;;3.33;;
32427;SDS011;18882;50.952;4.366;2022-09-23T04:38:49;8.65;;;3.40;;
32427;SDS011;18882;50.952;4.366;2022-09-23T04:41:15;7.72;;;3.28;;
32427;SDS011;18882;50.952;4.366;2022-09-23T04:43:42;7.72;;;3.13;;
32427;SDS011;18882;50.952;4.366;2022-09-23T04:46:09;6.25;;;3.38;;
32427;SDS011;18882;50.952;4.366;2022-09-23T04:48:37;11.85;;;3.92;;
32427;SDS011;18882;50.952;4.366;2022-09-23T04:51:14;10.07;;;3.72;;
32427;SDS011;18882;50.952;4.366;2022-09-23T04:53:43;8.13;;;4.03;;
32427;SDS011;18882;50.952;4.366;2022-09-23T04:56:11;8.25;;;4.18;;
32427;SDS011;18882;50.952;4.366;2022-09-23T04:58:45;9.38;;;3.92;;
32427;SDS011;18882;50.952;4.366;2022-09-23T05:03:52;9.38;;;4.25;;
32427;SDS011;18882;50.952;4.366;2022-09-23T05:06:22;15.00;;;4.07;;
32427;SDS011;18882;50.952;4.366;2022-09-23T05:08:49;10.63;;;4.40;;
32427;SDS011;18882;50.952;4.366;2022-09-23T05:11:20;13.10;;;4.00;;
32427;SDS011;18882;50.952;4.366;2022-09-23T05:13:47;9.25;;;3.72;;
32427;SDS011;18882;50.952;4.366;2022-09-23T05:16:13;9.00;;;3.60;;
32427;SDS011;18882;50.952;4.366;2022-09-23T05:18:40;11.95;;;4.65;;
32427;SDS011;18882;50.952;4.366;2022-09-23T05:21:11;9.00;;;4.15;;
32427;SDS011;18882;50.952;4.366;2022-09-23T05:23:39;9.70;;;3.90;;
32427;SDS011;18882;50.952;4.366;2022-09-23T05:26:06;10.82;;;4.50;;
32427;SDS011;18882;50.952;4.366;2022-09-23T05:28:33;14.00;;;4.80;;
32427;SDS011;18882;50.952;4.366;2022-09-23T05:31:05;16.05;;;4.68;;
32427;SDS011;18882;50.952;4.366;2022-09-23T05:33:40;14.30;;;4.78;;
32427;SDS011;18882;50.952;4.366;2022-09-23T05:36:10;12.15;;;4.80;;
32427;SDS011;18882;50.952;4.366;2022-09-23T05:38:36;13.32;;;4.50;;
32427;SDS011;18882;50.952;4.366;2022-09-23T05:41:03;12.50;;;5.57;;
32427;SDS011;18882;50.952;4.366;2022-09-23T05:43:31;12.68;;;5.35;;
32427;SDS011;18882;50.952;4.366;2022-09-23T05:46:16;14.05;;;5.15;;
32427;SDS011;18882;50.952;4.366;2022-09-23T05:48:43;15.82;;;5.18;;
32427;SDS011;18882;50.952;4.366;2022-09-23T05:51:12;13.05;;;4.85;;
32427;SDS011;18882;50.952;4.366;2022-09-23T05:53:45;14.32;;;5.45;;
32427;SDS011;18882;50.952;4.366;2022-09-23T05:56:16;16.13;;;4.88;;
32427;SDS011;18882;50.952;4.366;2022-09-23T05:58:43;10.70;;;5.22;;
32427;SDS011;18882;50.952;4.366;2022-09-23T06:01:10;10.45;;;4.80;;
32427;SDS011;18882;50.952;4.366;2022-09-23T06:03:38;9.88;;;4.68;;
32427;SDS011;18882;50.952;4.366;2022-09-23T06:06:04;19.15;;;5.90;;
32427;SDS011;18882;50.952;4.366;2022-09-23T06:08:30;11.07;;;4.65;;
32427;SDS011;18882;50.952;4.366;2022-09-23T06:11:01;14.40;;;4.90;;
32427;SDS011;18882;50.952;4.366;2022-09-23T06:13:32;12.20;;;5.13;;
32427;SDS011;18882;50.952;4.366;2022-09-23T06:15:59;16.48;;;5.22;;
32427;SDS011;18882;50.952;4.366;2022-09-23T06:18:25;14.52;;;5.20;;
32427;SDS011;18882;50.952;4.366;2022-09-23T06:20:51;10.02;;;4.57;;
32427;SDS011;18882;50.952;4.366;2022-09-23T06:23:17;17.70;;;4.80;;
32427;SDS011;18882;50.952;4.366;2022-09-23T06:25:42;15.23;;;3.92;;
32427;SDS011;18882;50.952;4.366;2022-09-23T06:28:08;13.95;;;5.10;;
32427;SDS011;18882;50.952;4.366;2022-09-23T06:30:35;9.88;;;4.50;;
32427;SDS011;18882;50.952;4.366;2022-09-23T06:33:01;18.13;;;5.05;;
32427;SDS011;18882;50.952;4.366;2022-09-23T06:35:27;23.95;;;5.90;;
32427;SDS011;18882;50.952;4.366;2022-09-23T06:37:53;22.33;;;6.53;;
32427;SDS011;18882;50.952;4.366;2022-09-23T06:40:19;14.02;;;5.60;;
32427;SDS011;18882;50.952;4.366;2022-09-23T06:42:46;20.35;;;6.50;;
32427;SDS011;18882;50.952;4.366;2022-09-23T06:45:12;23.98;;;7.05;;
32427;SDS011;18882;50.952;4.366;2022-09-23T06:47:39;18.17;;;5.68;;
32427;SDS011;18882;50.952;4.366;2022-09-23T06:50:06;15.13;;;5.68;;
32427;SDS011;18882;50.952;4.366;2022-09-23T06:52:38;17.60;;;5.38;;
32427;SDS011;18882;50.952;4.366;2022-09-23T06:55:04;13.20;;;5.68;;
32427;SDS011;18882;50.952;4.366;2022-09-23T06:57:30;16.15;;;6.18;;
32427;SDS011;18882;50.952;4.366;2022-09-23T06:59:57;14.20;;;5.90;;
32427;SDS011;18882;50.952;4.366;2022-09-23T07:02:23;15.77;;;5.47;;
32427;SDS011;18882;50.952;4.366;2022-09-23T07:04:49;21.02;;;6.20;;
32427;SDS011;18882;50.952;4.366;2022-09-23T07:07:15;18.75;;;6.05;;
32427;SDS011;18882;50.952;4.366;2022-09-23T07:09:42;18.63;;;5.82;;
32427;SDS011;18882;50.952;4.366;2022-09-23T07:12:08;20.73;;;5.38;;
32427;SDS011;18882;50.952;4.366;2022-09-23T07:14:34;22.38;;;5.55;;
32427;SDS011;18882;50.952;4.366;2022-09-23T07:16:59;15.00;;;6.03;;
32427;SDS011;18882;50.952;4.366;2022-09-23T07:19:27;15.25;;;5.38;;
32427;SDS011;18882;50.952;4.366;2022-09-23T07:21:52;18.38;;;6.15;;
32427;SDS011;18882;50.952;4.366;2022-09-23T07:24:18;17.63;;;5.78;;
32427;SDS011;18882;50.952;4.366;2022-09-23T07:26:44;17.38;;;6.05;;
32427;SDS011;18882;50.952;4.366;2022-09-23T07:29:11;15.00;;;5.72;;
32427;SDS011;18882;50.952;4.366;2022-09-23T07:31:37;16.95;;;6.35;;
32427;SDS011;18882;50.952;4.366;2022-09-23T07:34:03;20.00;;;5.65;;
32427;SDS011;18882;50.952;4.366;2022-09-23T07:36:29;17.02;;;6.05;;
32427;SDS011;18882;50.952;4.366;2022-09-23T07:38:56;14.20;;;5.78;;
32427;SDS011;18882;50.952;4.366;2022-09-23T07:41:26;16.13;;;5.88;;
32427;SDS011;18882;50.952;4.366;2022-09-23T07:43:53;18.33;;;5.60;;
32427;SDS011;18882;50.952;4.366;2022-09-23T07:46:21;14.38;;;4.78;;
32427;SDS011;18882;50.952;4.366;2022-09-23T07:48:47;14.38;;;4.93;;
32427;SDS011;18882;50.952;4.366;2022-09-23T07:51:16;14.18;;;4.57;;
32427;SDS011;18882;50.952;4.366;2022-09-23T07:53:48;11.95;;;4.97;;
32427;SDS011;18882;50.952;4.366;2022-09-23T07:56:15;11.73;;;4.80;;
32427;SDS011;18882;50.952;4.366;2022-09-23T07:58:43;13.52;;;5.25;;
32427;SDS011;18882;50.952;4.366;2022-09-23T08:01:10;12.88;;;4.45;;
32427;SDS011;18882;50.952;4.366;2022-09-23T08:03:36;16.13;;;4.53;;
32427;SDS011;18882;50.952;4.366;2022-09-23T08:06:06;16.17;;;4.97;;
32427;SDS011;18882;50.952;4.366;2022-09-23T08:08:34;11.00;;;4.50;;
32427;SDS011;18882;50.952;4.366;2022-09-23T08:11:04;13.48;;;4.60;;
32427;SDS011;18882;50.952;4.366;2022-09-23T08:13:31;15.27;;;4.97;;
32427;SDS011;18882;50.952;4.366;2022-09-23T08:15:58;12.60;;;3.92;;
32427;SDS011;18882;50.952;4.366;2022-09-23T08:18:24;14.77;;;3.80;;
32427;SDS011;18882;50.952;4.366;2022-09-23T08:20:50;10.73;;;3.88;;
32427;SDS011;18882;50.952;4.366;2022-09-23T08:23:16;9.18;;;3.90;;
32427;SDS011;18882;50.952;4.366;2022-09-23T08:25:43;12.18;;;4.00;;
32427;SDS011;18882;50.952;4.366;2022-09-23T08:28:13;8.38;;;4.00;;
32427;SDS011;18882;50.952;4.366;2022-09-23T08:30:41;10.57;;;3.67;;
32427;SDS011;18882;50.952;4.366;2022-09-23T08:33:07;17.38;;;5.45;;
32427;SDS011;18882;50.952;4.366;2022-09-23T08:35:33;9.35;;;4.00;;
32427;SDS011;18882;50.952;4.366;2022-09-23T08:37:59;10.85;;;3.63;;
32427;SDS011;18882;50.952;4.366;2022-09-23T08:40:24;11.13;;;4.00;;
32427;SDS011;18882;50.952;4.366;2022-09-23T08:42:50;11.35;;;4.30;;
32427;SDS011;18882;50.952;4.366;2022-09-23T08:45:20;17.42;;;4.22;;
32427;SDS011;18882;50.952;4.366;2022-09-23T08:47:54;8.23;;;3.63;;
32427;SDS011;18882;50.952;4.366;2022-09-23T08:50:27;13.65;;;4.13;;
32427;SDS011;18882;50.952;4.366;2022-09-23T08:53:04;11.88;;;4.32;;
32427;SDS011;18882;50.952;4.366;2022-09-23T08:55:42;8.43;;;3.60;;
32427;SDS011;18882;50.952;4.366;2022-09-23T09:07:03;13.35;;;3.97;;
32427;SDS011;18882;50.952;4.366;2022-09-23T09:10:08;11.10;;;3.50;;
32427;SDS011;18882;50.952;4.366;2022-09-23T09:12:44;7.88;;;3.60;;
32427;SDS011;18882;50.952;4.366;2022-09-23T09:15:19;9.35;;;3.70;;
32427;SDS011;18882;50.952;4.366;2022-09-23T09:20:38;9.88;;;3.95;;
32427;SDS011;18882;50.952;4.366;2022-09-23T09:23:11;8.10;;;4.00;;
32427;SDS011;18882;50.952;4.366;2022-09-23T09:31:09;7.85;;;3.75;;
32427;SDS011;18882;50.952;4.366;2022-09-23T09:39:13;8.68;;;3.85;;
32427;SDS011;18882;50.952;4.366;2022-09-23T09:41:47;7.75;;;3.58;;
32427;SDS011;18882;50.952;4.366;2022-09-23T09:44:23;8.05;;;3.40;;
32427;SDS011;18882;50.952;4.366;2022-09-23T09:49:41;12.00;;;3.30;;
32427;SDS011;18882;50.952;4.366;2022-09-23T09:52:18;7.72;;;3.40;;
32427;SDS011;18882;50.952;4.366;2022-09-23T09:54:46;7.80;;;3.47;;
32427;SDS011;18882;50.952;4.366;2022-09-23T09:59:56;5.50;;;3.05;;
32427;SDS011;18882;50.952;4.366;2022-09-23T10:02:29;13.23;;;3.38;;
32427;SDS011;18882;50.952;4.366;2022-09-23T10:05:01;8.05;;;3.58;;
32427;SDS011;18882;50.952;4.366;2022-09-23T10:07:31;8.25;;;3.42;;
32427;SDS011;18882;50.952;4.366;2022-09-23T10:09:58;5.63;;;2.72;;
32427;SDS011;18882;50.952;4.366;2022-09-23T10:12:45;7.72;;;3.28;;
32427;SDS011;18882;50.952;4.366;2022-09-23T10:15:31;7.93;;;3.10;;
32427;SDS011;18882;50.952;4.366;2022-09-23T10:18:10;6.88;;;2.65;;
32427;SDS011;18882;50.952;4.366;2022-09-23T10:21:08;10.05;;;2.90;;
32427;SDS011;18882;50.952;4.366;2022-09-23T10:23:42;10.23;;;3.70;;
32427;SDS011;18882;50.952;4.366;2022-09-23T10:26:10;8.88;;;3.00;;
32427;SDS011;18882;50.952;4.366;2022-09-23T10:31:03;5.30;;;2.80;;
32427;SDS011;18882;50.952;4.366;2022-09-23T10:33:30;7.25;;;2.50;;
32427;SDS011;18882;50.952;4.366;2022-09-23T10:35:56;4.65;;;2.55;;
32427;SDS011;18882;50.952;4.366;2022-09-23T10:38:22;4.15;;;2.38;;
32427;SDS011;18882;50.952;4.366;2022-09-23T10:40:48;5.25;;;2.63;;
32427;SDS011;18882;50.952;4.366;2022-09-23T10:54:43;7.53;;;2.47;;
32427;SDS011;18882;50.952;4.366;2022-09-23T11:05:41;8.18;;;2.85;;
32427;SDS011;18882;50.952;4.366;2022-09-23T11:11:27;9.90;;;2.15;;
32427;SDS011;18882;50.952;4.366;2022-09-23T11:17:02;4.75;;;2.25;;
32427;SDS011;18882;50.952;4.366;2022-09-23T11:27:36;5.78;;;2.58;;
32427;SDS011;18882;50.952;4.366;2022-09-23T11:30:07;3.95;;;2.42;;
32427;SDS011;18882;50.952;4.366;2022-09-23T11:35:26;4.40;;;3.22;;
32427;SDS011;18882;50.952;4.366;2022-09-23T11:41:22;12.75;;;2.97;;
32427;SDS011;18882;50.952;4.366;2022-09-23T11:43:53;3.97;;;2.45;;
32427;SDS011;18882;50.952;4.366;2022-09-23T11:46:32;5.28;;;2.75;;
32427;SDS011;18882;50.952;4.366;2022-09-23T11:49:20;6.05;;;2.47;;
32427;SDS011;18882;50.952;4.366;2022-09-23T11:57:41;6.10;;;2.72;;
32427;SDS011;18882;50.952;4.366;2022-09-23T12:00:21;6.70;;;3.28;;
32427;SDS011;18882;50.952;4.366;2022-09-23T12:05:53;3.95;;;2.67;;
32427;SDS011;18882;50.952;4.366;2022-09-23T12:08:27;5.35;;;2.70;;
32427;SDS011;18882;50.952;4.366;2022-09-23T12:28:02;4.68;;;3.03;;
32427;SDS011;18882;50.952;4.366;2022-09-23T12:30:34;6.15;;;2.75;;
32427;SDS011;18882;50.952;4.366;2022-09-23T12:33:05;7.55;;;3.17;;
32427;SDS011;18882;50.952;4.366;2022-09-23T12:35:39;6.22;;;2.78;;
32427;SDS011;18882;50.952;4.366;2022-09-23T12:38:25;4.00;;;2.40;;
32427;SDS011;18882;50.952;4.366;2022-09-23T12:41:02;8.07;;;3.20;;
32427;SDS011;18882;50.952;4.366;2022-09-23T12:43:49;4.82;;;3.00;;
32427;SDS011;18882;50.952;4.366;2022-09-23T12:46:23;5.82;;;2.78;;
32427;SDS011;18882;50.952;4.366;2022-09-23T12:51:28;6.57;;;2.47;;
32427;SDS011;18882;50.952;4.366;2022-09-23T12:59:25;5.28;;;2.78;;
32427;SDS011;18882;50.952;4.366;2022-09-23T13:07:39;8.57;;;3.37;;
32427;SDS011;18882;50.952;4.366;2022-09-23T13:12:43;4.28;;;2.58;;
32427;SDS011;18882;50.952;4.366;2022-09-23T13:15:20;3.65;;;2.90;;
32427;SDS011;18882;50.952;4.366;2022-09-23T13:17:52;7.22;;;3.55;;
32427;SDS011;18882;50.952;4.366;2022-09-23T13:20:38;5.03;;;3.53;;
32427;SDS011;18882;50.952;4.366;2022-09-23T13:23:24;4.05;;;2.92;;
32427;SDS011;18882;50.952;4.366;2022-09-23T13:26:00;5.18;;;2.75;;
32427;SDS011;18882;50.952;4.366;2022-09-23T13:28:36;4.57;;;3.40;;
32427;SDS011;18882;50.952;4.366;2022-09-23T13:31:13;3.50;;;3.08;;
32427;SDS011;18882;50.952;4.366;2022-09-23T13:33:41;5.25;;;3.58;;
32427;SDS011;18882;50.952;4.366;2022-09-23T13:36:13;8.00;;;4.32;;
32427;SDS011;18882;50.952;4.366;2022-09-23T13:38:41;6.10;;;3.80;;
32427;SDS011;18882;50.952;4.366;2022-09-23T13:41:14;4.75;;;4.05;;
32427;SDS011;18882;50.952;4.366;2022-09-23T13:43:49;6.43;;;4.00;;
32427;SDS011;18882;50.952;4.366;2022-09-23T13:46:18;7.50;;;4.05;;
32427;SDS011;18882;50.952;4.366;2022-09-23T13:48:46;5.22;;;3.47;;
32427;SDS011;18882;50.952;4.366;2022-09-23T13:51:19;7.30;;;4.10;;
32427;SDS011;18882;50.952;4.366;2022-09-23T13:54:22;8.80;;;4.22;;
32427;SDS011;18882;50.952;4.366;2022-09-23T13:56:53;4.05;;;3.42;;
32427;SDS011;18882;50.952;4.366;2022-09-23T13:59:28;7.00;;;4.22;;
32427;SDS011;18882;50.952;4.366;2022-09-23T14:02:03;6.15;;;3.95;;
32427;SDS011;18882;50.952;4.366;2022-09-23T14:04:40;7.50;;;4.55;;
32427;SDS011;18882;50.952;4.366;2022-09-23T14:07:07;10.15;;;3.90;;
32427;SDS011;18882;50.952;4.366;2022-09-23T14:09:35;6.82;;;3.92;;
32427;SDS011;18882;50.952;4.366;2022-09-23T14:12:04;7.07;;;3.72;;
32427;SDS011;18882;50.952;4.366;2022-09-23T14:14:32;4.28;;;3.28;;
32427;SDS011;18882;50.952;4.366;2022-09-23T14:16:59;11.60;;;4.45;;
32427;SDS011;18882;50.952;4.366;2022-09-23T14:19:26;4.72;;;3.80;;
32427;SDS011;18882;50.952;4.366;2022-09-23T14:21:52;6.90;;;4.13;;
32427;SDS011;18882;50.952;4.366;2022-09-23T14:26:47;4.53;;;3.33;;
32427;SDS011;18882;50.952;4.366;2022-09-23T14:29:23;6.95;;;3.67;;
32427;SDS011;18882;50.952;4.366;2022-09-23T14:31:55;4.70;;;3.70;;
32427;SDS011;18882;50.952;4.366;2022-09-23T14:34:41;5.90;;;3.28;;
32427;SDS011;18882;50.952;4.366;2022-09-23T14:42:43;6.03;;;3.50;;
32427;SDS011;18882;50.952;4.366;2022-09-23T14:45:22;5.55;;;3.25;;
32427;SDS011;18882;50.952;4.366;2022-09-23T14:47:57;8.10;;;3.30;;
32427;SDS011;18882;50.952;4.366;2022-09-23T14:50:25;7.85;;;3.83;;
32427;SDS011;18882;50.952;4.366;2022-09-23T14:53:05;7.95;;;4.30;;
32427;SDS011;18882;50.952;4.366;2022-09-23T14:58:39;18.20;;;4.28;;
32427;SDS011;18882;50.952;4.366;2022-09-23T15:03:55;13.75;;;3.90;;
32427;SDS011;18882;50.952;4.366;2022-09-23T15:06:35;5.32;;;3.35;;
32427;SDS011;18882;50.952;4.366;2022-09-23T15:09:02;11.40;;;3.95;;
32427;SDS011;18882;50.952;4.366;2022-09-23T15:11:30;6.32;;;3.25;;
32427;SDS011;18882;50.952;4.366;2022-09-23T15:13:55;7.82;;;3.20;;
32427;SDS011;18882;50.952;4.366;2022-09-23T15:16:25;13.57;;;8.30;;
32427;SDS011;18882;50.952;4.366;2022-09-23T15:18:55;11.07;;;5.97;;
32427;SDS011;18882;50.952;4.366;2022-09-23T15:21:24;8.40;;;3.53;;
32427;SDS011;18882;50.952;4.366;2022-09-23T15:24:29;5.47;;;3.17;;
32427;SDS011;18882;50.952;4.366;2022-09-23T15:26:56;6.30;;;3.70;;
32427;SDS011;18882;50.952;4.366;2022-09-23T15:29:22;4.88;;;3.38;;
32427;SDS011;18882;50.952;4.366;2022-09-23T15:31:50;6.93;;;3.25;;
32427;SDS011;18882;50.952;4.366;2022-09-23T15:34:15;9.18;;;3.38;;
32427;SDS011;18882;50.952;4.366;2022-09-23T15:36:43;7.93;;;3.42;;
32427;SDS011;18882;50.952;4.366;2022-09-23T15:39:09;5.72;;;3.22;;
32427;SDS011;18882;50.952;4.366;2022-09-23T15:41:36;6.93;;;3.28;;
32427;SDS011;18882;50.952;4.366;2022-09-23T15:44:03;6.82;;;3.75;;
32427;SDS011;18882;50.952;4.366;2022-09-23T15:46:48;8.98;;;4.28;;
32427;SDS011;18882;50.952;4.366;2022-09-23T15:49:33;7.63;;;4.22;;
32427;SDS011;18882;50.952;4.366;2022-09-23T15:52:00;5.60;;;3.43;;
32427;SDS011;18882;50.952;4.366;2022-09-23T15:54:28;10.50;;;4.13;;
32427;SDS011;18882;50.952;4.366;2022-09-23T15:56:54;6.00;;;3.40;;
32427;SDS011;18882;50.952;4.366;2022-09-23T15:59:21;4.90;;;3.70;;
32427;SDS011;18882;50.952;4.366;2022-09-23T16:01:47;8.85;;;4.43;;
32427;SDS011;18882;50.952;4.366;2022-09-23T16:04:14;5.78;;;3.72;;
32427;SDS011;18882;50.952;4.366;2022-09-23T16:06:41;7.78;;;4.13;;
32427;SDS011;18882;50.952;4.366;2022-09-23T16:09:08;6.75;;;4.05;;
32427;SDS011;18882;50.952;4.366;2022-09-23T16:11:37;7.22;;;4.57;;
32427;SDS011;18882;50.952;4.366;2022-09-23T16:14:04;9.82;;;4.47;;
32427;SDS011;18882;50.952;4.366;2022-09-23T16:16:30;9.35;;;4.05;;
32427;SDS011;18882;50.952;4.366;2022-09-23T16:18:55;11.55;;;4.18;;
32427;SDS011;18882;50.952;4.366;2022-09-23T16:21:24;9.63;;;4.82;;
32427;SDS011;18882;50.952;4.366;2022-09-23T16:23:52;7.60;;;4.72;;
32427;SDS011;18882;50.952;4.366;2022-09-23T16:26:23;9.52;;;4.40;;
32427;SDS011;18882;50.952;4.366;2022-09-23T16:28:52;5.85;;;3.80;;
32427;SDS011;18882;50.952;4.366;2022-09-23T16:31:19;5.15;;;3.90;;
32427;SDS011;18882;50.952;4.366;2022-09-23T16:33:46;7.65;;;4.55;;
32427;SDS011;18882;50.952;4.366;2022-09-23T16:36:23;7.55;;;4.40;;
32427;SDS011;18882;50.952;4.366;2022-09-23T16:38:50;8.98;;;4.57;;
32427;SDS011;18882;50.952;4.366;2022-09-23T16:41:19;7.38;;;4.43;;
32427;SDS011;18882;50.952;4.366;2022-09-23T16:43:47;8.98;;;4.93;;
32427;SDS011;18882;50.952;4.366;2022-09-23T16:46:14;7.75;;;4.65;;
32427;SDS011;18882;50.952;4.366;2022-09-23T16:48:41;8.63;;;3.95;;
32427;SDS011;18882;50.952;4.366;2022-09-23T16:51:07;7.82;;;4.60;;
32427;SDS011;18882;50.952;4.366;2022-09-23T16:53:42;7.25;;;4.85;;
32427;SDS011;18882;50.952;4.366;2022-09-23T16:56:09;12.85;;;5.00;;
32427;SDS011;18882;50.952;4.366;2022-09-23T16:58:36;9.45;;;5.13;;
32427;SDS011;18882;50.952;4.366;2022-09-23T17:01:03;6.10;;;4.90;;
32427;SDS011;18882;50.952;4.366;2022-09-23T17:03:47;9.57;;;5.47;;
32427;SDS011;18882;50.952;4.366;2022-09-23T17:06:13;7.35;;;4.85;;
32427;SDS011;18882;50.952;4.366;2022-09-23T17:08:40;11.23;;;6.10;;
32427;SDS011;18882;50.952;4.366;2022-09-23T17:11:07;10.02;;;4.70;;
32427;SDS011;18882;50.952;4.366;2022-09-23T17:13:34;11.13;;;5.95;;
32427;SDS011;18882;50.952;4.366;2022-09-23T17:16:01;13.40;;;5.57;;
32427;SDS011;18882;50.952;4.366;2022-09-23T17:18:27;9.55;;;5.18;;
32427;SDS011;18882;50.952;4.366;2022-09-23T17:20:57;10.85;;;5.63;;
32427;SDS011;18882;50.952;4.366;2022-09-23T17:23:28;12.93;;;6.10;;
32427;SDS011;18882;50.952;4.366;2022-09-23T17:25:55;13.05;;;6.70;;
32427;SDS011;18882;50.952;4.366;2022-09-23T17:28:22;10.80;;;6.72;;
32427;SDS011;18882;50.952;4.366;2022-09-23T17:30:58;10.90;;;6.38;;
32427;SDS011;18882;50.952;4.366;2022-09-23T17:33:25;13.60;;;7.28;;
32427;SDS011;18882;50.952;4.366;2022-09-23T17:35:52;12.13;;;7.53;;
32427;SDS011;18882;50.952;4.366;2022-09-23T17:38:20;13.65;;;7.10;;
32427;SDS011;18882;50.952;4.366;2022-09-23T17:40:49;12.40;;;6.82;;
32427;SDS011;18882;50.952;4.366;2022-09-23T17:43:19;12.38;;;6.43;;
32427;SDS011;18882;50.952;4.366;2022-09-23T17:45:49;14.45;;;7.82;;
32427;SDS011;18882;50.952;4.366;2022-09-23T17:48:24;14.52;;;7.35;;
32427;SDS011;18882;50.952;4.366;2022-09-23T17:50:56;11.70;;;7.05;;
32427;SDS011;18882;50.952;4.366;2022-09-23T17:53:23;12.03;;;7.47;;
32427;SDS011;18882;50.952;4.366;2022-09-23T17:56:00;15.23;;;7.93;;